Strona główna
METAR-TAF:

METAR-TAF

Lotnisko :

Port lotniczy Kansas City

Kansas City, Missouri, Stany Zjednoczone

Szerokość geograficzna: 39-17-50N, Długość geograficzna: 094-43-50W, wysokość: 312 m

Aktualna obserwacja pogody

Raport powstał 42 minut temu, godzina 13:53 UTC
Wiatr 11 kt od północ
Temperatura 0°C
Wilgotność 93%
Ciśnienie 1022 hPa
Widzialność: 9.7 km
Zachmurzenie całkowite na wysokości 600 ft
zamglenie

METAR: KMCI 141353Z 01011KT 6SM BR OVC006 00/M01 A3019 RMK AO2 SLP232 T00001011

czas: 08:35 (14:35 UTC)

Prognoza

Raport powstał 9 minut temu, godzina 14:26 UTC
Prognoza ważna od 14 godzina 14 UTC do 15 godzina 12 UTC
Wiatr 12 kt od północ
Widzialność: 9.7 km
Zachmurzenie całkowite na wysokości 800 ft
zamglenie
Od 14 godzina 1800 UTC
Wiatr 9 kt od północ
Widzialność: 10 km
Rozproszone chmury na wysokości 1500 ft
Od 14 godzina 2000 UTC
Wiatr 9 kt od północ
Widzialność: 10 km
bezchmurnie

TAF: KMCI 141426Z 1414/1512 36012KT 6SM BR OVC008 FM141800 36009KT P6SM SCT015 FM142000 36009KT P6SM SKC

Obserwacja i prognoza pogody dla ponad 4000 lotnisk (raport METAR i TAF).

Dostępne stacje oznaczono żółtymi i czerwonymi punktami na mapie.

Najedź kursorem aby zobaczyć nazwę stacji.

Kliknij aby zobaczyć obserwacje i prognozy pogody.

Aby zmienić mapę: kliknij na zielony przycisk z czarnym krzyżykiem, aby powiększyć; na zielony przycisk z myślnikiem, aby pomniejszyć; na zielone strzałki, aby przejść do map sąsiednich.


METAR-TAF: